Mouth Of Wilson, VA (24363)

4:21 AM EDT on May 30, 2015 (GMT -0400)
Matney Cabin in Mouth of Wilson | | Change Station
CLOSE
Current Station
Personal Weather Station
Location: Mouth Of Wilson, VA
Elevation: 2841 ft
Nearby Weather Stations

Elev 2841 ft 36.60 °N, 81.36 °W | Updated 48 seconds ago

Overcast
Overcast
61.4 °F
Feels Like 61.4 °F
N
0.0
Wind Variable Wind from West
Gusts 0.0 mph

Today
High -- | Low -- °F
--% Chance of Precip.
Yesterday
High -- | Low -- °F
Precip. -- in
6:09 AM 8:37 PM
Waxing Gibbous, 89% visible
Pressure 30.25 in
Visibility 7.0 miles
Clouds Overcast 1500 ft
Dew Point 60 °F
Humidity 96%
Rainfall 0.00 in
Snow Depth Not available.
UV 0 out of 12
Pollen 6.50 out of 12
Air Quality Not available.
Flu Activity Sporadic
METAR KGEV 300815Z AUTO 00000KT 7SM OVC015 17/17 A3025 RMK AO2 T01660166

More Conditions Fewer Conditions

Pressure 30.25 in
Visibility 7.0 miles
Clouds Overcast 1500 ft
Dew Point 60 °F
Humidity 96%
Rainfall 0.00 in
Snow Depth Not available.
UV 0 out of 12
Pollen 6.50 out of 12
Air Quality Not available.
Flu Activity Sporadic
METAR KGEV 300815Z AUTO 00000KT 7SM OVC015 17/17 A3025 RMK AO2 T01660166

More Conditions Fewer Conditions

10-Day Weather Forecast

Almanac

Astronomy

May. 30, 2015 Rise Set
Actual Time
Civil Twilight
Nautical Twilight
Astronomical Twilight
Moon
Length of Visible Light
Length of Day
Tomorrow will be .
, % of the Moon is Illuminated

Today's Extremes

State Highs State Lows

Community

WunderPhotos

Upload Photos

1,825,472 photos uploaded!

WunderBlogs® & News

Nearby

Air Quality

  Air Quality AQ Index Pollutant
Not available.

Snow Depth

Station Depth Elevation

Earthquake Activity

City Distance Mag. Time & Date
Minimum magnitude displayed is 2.5.

Coastal Water Temperatures

Place Temperature

Stations

Nearby Weather Stations

Station Location Temp. Windchill Dew Point Humidity Wind Precip. Elev Updated Type